sensor_id;sensor_type;location;lat;lon;timestamp;P1;durP1;ratioP1;P2;durP2;ratioP2
10511;SDS011;5304;48.604;2.096;2022-11-15T00:01:28;6.77;;;3.03;;
10511;SDS011;5304;48.604;2.096;2022-11-15T00:04:13;8.43;;;3.03;;
10511;SDS011;5304;48.604;2.096;2022-11-15T00:06:58;6.57;;;3.50;;
10511;SDS011;5304;48.604;2.096;2022-11-15T00:09:42;4.90;;;3.17;;
10511;SDS011;5304;48.604;2.096;2022-11-15T00:12:27;7.47;;;2.70;;
10511;SDS011;5304;48.604;2.096;2022-11-15T00:15:12;6.50;;;2.70;;
10511;SDS011;5304;48.604;2.096;2022-11-15T00:17:57;6.13;;;2.53;;
10511;SDS011;5304;48.604;2.096;2022-11-15T00:20:42;9.40;;;2.93;;
10511;SDS011;5304;48.604;2.096;2022-11-15T00:23:26;4.13;;;1.80;;
10511;SDS011;5304;48.604;2.096;2022-11-15T00:26:11;2.53;;;2.20;;
10511;SDS011;5304;48.604;2.096;2022-11-15T00:28:56;5.13;;;2.27;;
10511;SDS011;5304;48.604;2.096;2022-11-15T00:31:41;4.17;;;2.43;;
10511;SDS011;5304;48.604;2.096;2022-11-15T00:34:25;6.10;;;2.50;;
10511;SDS011;5304;48.604;2.096;2022-11-15T00:37:10;4.67;;;2.40;;
10511;SDS011;5304;48.604;2.096;2022-11-15T00:39:54;6.90;;;2.53;;
10511;SDS011;5304;48.604;2.096;2022-11-15T00:42:39;8.03;;;2.50;;
10511;SDS011;5304;48.604;2.096;2022-11-15T00:45:24;5.17;;;1.93;;
10511;SDS011;5304;48.604;2.096;2022-11-15T00:48:09;6.97;;;2.13;;
10511;SDS011;5304;48.604;2.096;2022-11-15T00:50:53;6.97;;;2.10;;
10511;SDS011;5304;48.604;2.096;2022-11-15T00:53:38;6.20;;;2.27;;
10511;SDS011;5304;48.604;2.096;2022-11-15T00:56:23;4.77;;;2.07;;
10511;SDS011;5304;48.604;2.096;2022-11-15T00:59:07;5.70;;;1.90;;
10511;SDS011;5304;48.604;2.096;2022-11-15T01:01:51;6.63;;;2.13;;
10511;SDS011;5304;48.604;2.096;2022-11-15T01:04:35;4.17;;;2.10;;
10511;SDS011;5304;48.604;2.096;2022-11-15T01:07:19;4.93;;;1.83;;
10511;SDS011;5304;48.604;2.096;2022-11-15T01:10:04;4.13;;;1.73;;
10511;SDS011;5304;48.604;2.096;2022-11-15T01:12:49;6.97;;;2.03;;
10511;SDS011;5304;48.604;2.096;2022-11-15T01:15:33;7.20;;;2.13;;
10511;SDS011;5304;48.604;2.096;2022-11-15T01:18:18;6.07;;;2.30;;
10511;SDS011;5304;48.604;2.096;2022-11-15T01:21:21;6.93;;;1.80;;
10511;SDS011;5304;48.604;2.096;2022-11-15T01:24:06;4.93;;;2.10;;
10511;SDS011;5304;48.604;2.096;2022-11-15T01:26:51;2.93;;;2.33;;
10511;SDS011;5304;48.604;2.096;2022-11-15T01:29:36;5.43;;;2.20;;
10511;SDS011;5304;48.604;2.096;2022-11-15T01:32:20;6.40;;;2.37;;
10511;SDS011;5304;48.604;2.096;2022-11-15T01:35:06;8.17;;;2.13;;
10511;SDS011;5304;48.604;2.096;2022-11-15T01:37:51;7.13;;;2.60;;
10511;SDS011;5304;48.604;2.096;2022-11-15T01:40:35;3.97;;;1.53;;
10511;SDS011;5304;48.604;2.096;2022-11-15T01:43:23;5.67;;;2.40;;
10511;SDS011;5304;48.604;2.096;2022-11-15T01:49:16;7.80;;;2.60;;
10511;SDS011;5304;48.604;2.096;2022-11-15T01:52:05;6.07;;;2.20;;
10511;SDS011;5304;48.604;2.096;2022-11-15T01:54:55;3.43;;;2.20;;
10511;SDS011;5304;48.604;2.096;2022-11-15T01:57:50;8.50;;;2.20;;
10511;SDS011;5304;48.604;2.096;2022-11-15T02:00:37;7.97;;;2.23;;
10511;SDS011;5304;48.604;2.096;2022-11-15T02:03:22;5.23;;;2.23;;
10511;SDS011;5304;48.604;2.096;2022-11-15T02:06:12;7.53;;;2.10;;
10511;SDS011;5304;48.604;2.096;2022-11-15T02:08:56;12.20;;;2.67;;
10511;SDS011;5304;48.604;2.096;2022-11-15T02:11:41;6.70;;;2.23;;
10511;SDS011;5304;48.604;2.096;2022-11-15T02:14:27;5.30;;;2.47;;
10511;SDS011;5304;48.604;2.096;2022-11-15T02:18:01;8.53;;;2.43;;
10511;SDS011;5304;48.604;2.096;2022-11-15T02:33:52;10.37;;;2.47;;
10511;SDS011;5304;48.604;2.096;2022-11-15T02:42:18;5.17;;;1.87;;
10511;SDS011;5304;48.604;2.096;2022-11-15T02:45:35;4.77;;;1.97;;
10511;SDS011;5304;48.604;2.096;2022-11-15T02:48:24;6.50;;;2.53;;
10511;SDS011;5304;48.604;2.096;2022-11-15T02:51:09;7.37;;;2.63;;
10511;SDS011;5304;48.604;2.096;2022-11-15T02:53:55;6.60;;;2.10;;
10511;SDS011;5304;48.604;2.096;2022-11-15T02:56:40;5.00;;;2.40;;
10511;SDS011;5304;48.604;2.096;2022-11-15T02:59:31;4.97;;;1.93;;
10511;SDS011;5304;48.604;2.096;2022-11-15T03:09:15;8.03;;;2.20;;
10511;SDS011;5304;48.604;2.096;2022-11-15T03:12:24;4.43;;;1.97;;
10511;SDS011;5304;48.604;2.096;2022-11-15T03:15:21;3.17;;;2.20;;
10511;SDS011;5304;48.604;2.096;2022-11-15T03:18:18;6.00;;;1.67;;
10511;SDS011;5304;48.604;2.096;2022-11-15T03:21:13;4.77;;;1.83;;
10511;SDS011;5304;48.604;2.096;2022-11-15T03:24:02;5.97;;;2.23;;
10511;SDS011;5304;48.604;2.096;2022-11-15T03:26:49;11.30;;;2.50;;
10511;SDS011;5304;48.604;2.096;2022-11-15T03:29:36;3.30;;;1.73;;
10511;SDS011;5304;48.604;2.096;2022-11-15T03:32:28;6.50;;;1.90;;
10511;SDS011;5304;48.604;2.096;2022-11-15T03:35:17;8.60;;;2.23;;
10511;SDS011;5304;48.604;2.096;2022-11-15T03:38:06;8.80;;;2.10;;
10511;SDS011;5304;48.604;2.096;2022-11-15T03:41:19;19.33;;;2.27;;
10511;SDS011;5304;48.604;2.096;2022-11-15T03:44:14;7.83;;;2.10;;
10511;SDS011;5304;48.604;2.096;2022-11-15T03:47:11;4.80;;;1.90;;
10511;SDS011;5304;48.604;2.096;2022-11-15T03:50:04;3.83;;;1.83;;
10511;SDS011;5304;48.604;2.096;2022-11-15T03:52:53;4.60;;;2.30;;
10511;SDS011;5304;48.604;2.096;2022-11-15T03:55:38;5.00;;;1.77;;
10511;SDS011;5304;48.604;2.096;2022-11-15T03:58:23;8.10;;;1.90;;
10511;SDS011;5304;48.604;2.096;2022-11-15T04:01:07;4.77;;;2.00;;
10511;SDS011;5304;48.604;2.096;2022-11-15T04:03:52;6.40;;;2.20;;
10511;SDS011;5304;48.604;2.096;2022-11-15T04:06:36;5.23;;;1.97;;
10511;SDS011;5304;48.604;2.096;2022-11-15T04:09:21;8.40;;;1.70;;
10511;SDS011;5304;48.604;2.096;2022-11-15T04:12:05;5.10;;;1.73;;
10511;SDS011;5304;48.604;2.096;2022-11-15T04:14:50;8.07;;;2.07;;
10511;SDS011;5304;48.604;2.096;2022-11-15T04:17:54;5.90;;;2.00;;
10511;SDS011;5304;48.604;2.096;2022-11-15T04:20:39;5.07;;;1.50;;
10511;SDS011;5304;48.604;2.096;2022-11-15T04:23:43;4.70;;;1.90;;
10511;SDS011;5304;48.604;2.096;2022-11-15T04:26:50;6.60;;;2.27;;
10511;SDS011;5304;48.604;2.096;2022-11-15T04:29:35;6.43;;;1.97;;
10511;SDS011;5304;48.604;2.096;2022-11-15T04:32:20;3.73;;;1.90;;
10511;SDS011;5304;48.604;2.096;2022-11-15T04:35:04;8.00;;;2.40;;
10511;SDS011;5304;48.604;2.096;2022-11-15T04:37:49;4.40;;;1.93;;
10511;SDS011;5304;48.604;2.096;2022-11-15T04:40:34;5.90;;;1.90;;
10511;SDS011;5304;48.604;2.096;2022-11-15T04:43:20;5.37;;;2.37;;
10511;SDS011;5304;48.604;2.096;2022-11-15T04:46:04;4.60;;;1.70;;
10511;SDS011;5304;48.604;2.096;2022-11-15T04:48:49;10.17;;;2.30;;
10511;SDS011;5304;48.604;2.096;2022-11-15T04:51:33;6.13;;;2.10;;
10511;SDS011;5304;48.604;2.096;2022-11-15T04:54:18;4.53;;;1.90;;
10511;SDS011;5304;48.604;2.096;2022-11-15T04:57:02;5.40;;;1.70;;
10511;SDS011;5304;48.604;2.096;2022-11-15T04:59:47;6.80;;;2.17;;
10511;SDS011;5304;48.604;2.096;2022-11-15T05:02:31;8.60;;;2.27;;
10511;SDS011;5304;48.604;2.096;2022-11-15T05:05:34;9.30;;;2.83;;
10511;SDS011;5304;48.604;2.096;2022-11-15T05:08:19;6.73;;;2.13;;
10511;SDS011;5304;48.604;2.096;2022-11-15T05:11:03;7.97;;;2.60;;
10511;SDS011;5304;48.604;2.096;2022-11-15T05:13:48;5.63;;;1.97;;
10511;SDS011;5304;48.604;2.096;2022-11-15T05:16:33;8.13;;;2.00;;
10511;SDS011;5304;48.604;2.096;2022-11-15T05:19:17;6.17;;;2.30;;
10511;SDS011;5304;48.604;2.096;2022-11-15T05:22:02;4.67;;;2.20;;
10511;SDS011;5304;48.604;2.096;2022-11-15T05:24:46;4.73;;;2.13;;
10511;SDS011;5304;48.604;2.096;2022-11-15T05:27:31;3.57;;;2.53;;
10511;SDS011;5304;48.604;2.096;2022-11-15T05:30:17;7.20;;;2.60;;
10511;SDS011;5304;48.604;2.096;2022-11-15T05:33:01;4.83;;;2.17;;
10511;SDS011;5304;48.604;2.096;2022-11-15T05:35:46;7.47;;;2.30;;
10511;SDS011;5304;48.604;2.096;2022-11-15T05:38:38;7.90;;;2.60;;
10511;SDS011;5304;48.604;2.096;2022-11-15T05:41:33;6.30;;;2.60;;
10511;SDS011;5304;48.604;2.096;2022-11-15T05:44:24;5.50;;;1.97;;
10511;SDS011;5304;48.604;2.096;2022-11-15T05:47:11;7.93;;;2.63;;
10511;SDS011;5304;48.604;2.096;2022-11-15T05:50:00;5.63;;;2.80;;
10511;SDS011;5304;48.604;2.096;2022-11-15T05:52:45;7.53;;;2.77;;
10511;SDS011;5304;48.604;2.096;2022-11-15T05:55:30;4.93;;;2.47;;
10511;SDS011;5304;48.604;2.096;2022-11-15T05:58:16;7.27;;;2.17;;
10511;SDS011;5304;48.604;2.096;2022-11-15T06:01:01;7.57;;;2.70;;
10511;SDS011;5304;48.604;2.096;2022-11-15T06:03:45;6.13;;;2.60;;
10511;SDS011;5304;48.604;2.096;2022-11-15T06:06:30;7.73;;;2.80;;
10511;SDS011;5304;48.604;2.096;2022-11-15T06:09:14;4.57;;;2.67;;
10511;SDS011;5304;48.604;2.096;2022-11-15T06:11:59;6.30;;;2.87;;
10511;SDS011;5304;48.604;2.096;2022-11-15T06:14:43;11.67;;;3.47;;
10511;SDS011;5304;48.604;2.096;2022-11-15T06:17:28;6.00;;;3.10;;
10511;SDS011;5304;48.604;2.096;2022-11-15T06:20:12;6.60;;;2.60;;
10511;SDS011;5304;48.604;2.096;2022-11-15T06:22:57;6.03;;;2.87;;
10511;SDS011;5304;48.604;2.096;2022-11-15T06:25:43;7.27;;;3.03;;
10511;SDS011;5304;48.604;2.096;2022-11-15T06:28:28;4.87;;;3.10;;
10511;SDS011;5304;48.604;2.096;2022-11-15T06:31:13;9.13;;;3.70;;
10511;SDS011;5304;48.604;2.096;2022-11-15T06:33:58;6.13;;;3.20;;
10511;SDS011;5304;48.604;2.096;2022-11-15T06:36:42;7.77;;;3.13;;
10511;SDS011;5304;48.604;2.096;2022-11-15T06:39:27;6.60;;;2.90;;
10511;SDS011;5304;48.604;2.096;2022-11-15T06:42:12;5.20;;;3.37;;
10511;SDS011;5304;48.604;2.096;2022-11-15T06:44:56;9.17;;;3.37;;
10511;SDS011;5304;48.604;2.096;2022-11-15T06:47:45;6.83;;;3.20;;
10511;SDS011;5304;48.604;2.096;2022-11-15T06:50:30;8.97;;;2.53;;
10511;SDS011;5304;48.604;2.096;2022-11-15T06:53:14;6.47;;;3.07;;
10511;SDS011;5304;48.604;2.096;2022-11-15T06:56:02;7.33;;;3.10;;
10511;SDS011;5304;48.604;2.096;2022-11-15T06:58:49;9.70;;;2.67;;
10511;SDS011;5304;48.604;2.096;2022-11-15T07:01:33;6.40;;;3.00;;
10511;SDS011;5304;48.604;2.096;2022-11-15T07:04:18;6.43;;;2.77;;
10511;SDS011;5304;48.604;2.096;2022-11-15T07:07:02;5.87;;;2.50;;
10511;SDS011;5304;48.604;2.096;2022-11-15T07:09:46;5.93;;;2.63;;
10511;SDS011;5304;48.604;2.096;2022-11-15T07:12:30;8.77;;;3.30;;
10511;SDS011;5304;48.604;2.096;2022-11-15T07:15:15;5.87;;;2.57;;
10511;SDS011;5304;48.604;2.096;2022-11-15T07:18:01;6.60;;;3.20;;
10511;SDS011;5304;48.604;2.096;2022-11-15T07:20:45;4.80;;;2.73;;
10511;SDS011;5304;48.604;2.096;2022-11-15T07:23:30;6.73;;;3.13;;
10511;SDS011;5304;48.604;2.096;2022-11-15T07:26:14;4.30;;;2.67;;
10511;SDS011;5304;48.604;2.096;2022-11-15T07:28:58;7.97;;;2.93;;
10511;SDS011;5304;48.604;2.096;2022-11-15T07:31:43;5.53;;;2.47;;
10511;SDS011;5304;48.604;2.096;2022-11-15T07:34:27;3.70;;;2.70;;
10511;SDS011;5304;48.604;2.096;2022-11-15T07:37:12;3.50;;;2.70;;
10511;SDS011;5304;48.604;2.096;2022-11-15T07:39:57;6.10;;;2.70;;
10511;SDS011;5304;48.604;2.096;2022-11-15T07:42:41;5.37;;;2.20;;
10511;SDS011;5304;48.604;2.096;2022-11-15T07:45:43;3.83;;;2.67;;
10511;SDS011;5304;48.604;2.096;2022-11-15T07:48:28;8.57;;;2.17;;
10511;SDS011;5304;48.604;2.096;2022-11-15T07:51:14;7.27;;;2.57;;
10511;SDS011;5304;48.604;2.096;2022-11-15T07:54:00;4.83;;;2.20;;
10511;SDS011;5304;48.604;2.096;2022-11-15T07:56:44;3.37;;;2.03;;
10511;SDS011;5304;48.604;2.096;2022-11-15T07:59:29;5.23;;;2.33;;
10511;SDS011;5304;48.604;2.096;2022-11-15T08:02:14;2.70;;;2.03;;
10511;SDS011;5304;48.604;2.096;2022-11-15T08:05:01;4.60;;;2.20;;
10511;SDS011;5304;48.604;2.096;2022-11-15T08:07:46;8.00;;;2.00;;
10511;SDS011;5304;48.604;2.096;2022-11-15T08:10:30;5.50;;;2.20;;
10511;SDS011;5304;48.604;2.096;2022-11-15T08:13:15;6.03;;;2.07;;
10511;SDS011;5304;48.604;2.096;2022-11-15T08:16:00;3.93;;;2.00;;
10511;SDS011;5304;48.604;2.096;2022-11-15T08:18:46;2.07;;;1.80;;
10511;SDS011;5304;48.604;2.096;2022-11-15T08:21:31;5.80;;;1.83;;
10511;SDS011;5304;48.604;2.096;2022-11-15T08:24:16;5.43;;;2.17;;
10511;SDS011;5304;48.604;2.096;2022-11-15T08:27:00;3.60;;;1.83;;
10511;SDS011;5304;48.604;2.096;2022-11-15T08:29:45;7.10;;;2.20;;
10511;SDS011;5304;48.604;2.096;2022-11-15T08:32:31;4.60;;;2.10;;
10511;SDS011;5304;48.604;2.096;2022-11-15T08:35:16;6.43;;;1.93;;
10511;SDS011;5304;48.604;2.096;2022-11-15T08:38:01;5.13;;;2.00;;
10511;SDS011;5304;48.604;2.096;2022-11-15T08:40:46;2.10;;;1.80;;
10511;SDS011;5304;48.604;2.096;2022-11-15T08:43:31;2.80;;;1.60;;
10511;SDS011;5304;48.604;2.096;2022-11-15T08:46:16;5.63;;;2.23;;
10511;SDS011;5304;48.604;2.096;2022-11-15T08:49:02;2.57;;;1.90;;
10511;SDS011;5304;48.604;2.096;2022-11-15T08:51:47;2.83;;;1.90;;
10511;SDS011;5304;48.604;2.096;2022-11-15T08:54:31;4.57;;;2.10;;
10511;SDS011;5304;48.604;2.096;2022-11-15T08:57:16;6.17;;;1.53;;
10511;SDS011;5304;48.604;2.096;2022-11-15T09:00:00;4.73;;;1.80;;
10511;SDS011;5304;48.604;2.096;2022-11-15T09:02:44;4.53;;;1.70;;
10511;SDS011;5304;48.604;2.096;2022-11-15T09:05:29;4.27;;;1.43;;
10511;SDS011;5304;48.604;2.096;2022-11-15T09:08:13;4.57;;;1.80;;
10511;SDS011;5304;48.604;2.096;2022-11-15T09:10:58;3.93;;;2.50;;
10511;SDS011;5304;48.604;2.096;2022-11-15T09:13:46;1.77;;;1.63;;
10511;SDS011;5304;48.604;2.096;2022-11-15T09:16:30;3.20;;;1.70;;
10511;SDS011;5304;48.604;2.096;2022-11-15T09:19:15;1.53;;;1.30;;
10511;SDS011;5304;48.604;2.096;2022-11-15T09:21:59;2.83;;;1.90;;
10511;SDS011;5304;48.604;2.096;2022-11-15T09:24:43;4.77;;;1.63;;
10511;SDS011;5304;48.604;2.096;2022-11-15T09:27:31;4.23;;;2.30;;
10511;SDS011;5304;48.604;2.096;2022-11-15T09:30:15;4.77;;;2.33;;
10511;SDS011;5304;48.604;2.096;2022-11-15T09:33:06;3.40;;;2.10;;
10511;SDS011;5304;48.604;2.096;2022-11-15T09:35:54;2.13;;;1.77;;
10511;SDS011;5304;48.604;2.096;2022-11-15T09:38:42;6.60;;;2.30;;
10511;SDS011;5304;48.604;2.096;2022-11-15T09:47:41;3.97;;;2.13;;
10511;SDS011;5304;48.604;2.096;2022-11-15T09:56:30;4.40;;;2.30;;
10511;SDS011;5304;48.604;2.096;2022-11-15T10:05:12;4.07;;;2.40;;
10511;SDS011;5304;48.604;2.096;2022-11-15T10:08:11;2.53;;;2.03;;
10511;SDS011;5304;48.604;2.096;2022-11-15T10:11:08;2.60;;;2.17;;
10511;SDS011;5304;48.604;2.096;2022-11-15T10:13:56;8.33;;;2.80;;
10511;SDS011;5304;48.604;2.096;2022-11-15T10:23:14;2.73;;;1.93;;
10511;SDS011;5304;48.604;2.096;2022-11-15T10:26:04;2.77;;;2.00;;
10511;SDS011;5304;48.604;2.096;2022-11-15T10:28:54;4.23;;;2.10;;
10511;SDS011;5304;48.604;2.096;2022-11-15T10:31:39;4.00;;;2.30;;
10511;SDS011;5304;48.604;2.096;2022-11-15T10:34:24;2.47;;;1.90;;
10511;SDS011;5304;48.604;2.096;2022-11-15T10:37:10;4.17;;;2.40;;
10511;SDS011;5304;48.604;2.096;2022-11-15T10:43:17;4.17;;;2.30;;
10511;SDS011;5304;48.604;2.096;2022-11-15T10:46:16;2.17;;;1.97;;
10511;SDS011;5304;48.604;2.096;2022-11-15T10:49:14;4.47;;;2.13;;
10511;SDS011;5304;48.604;2.096;2022-11-15T10:52:12;3.70;;;2.47;;
10511;SDS011;5304;48.604;2.096;2022-11-15T10:55:05;4.50;;;2.20;;
10511;SDS011;5304;48.604;2.096;2022-11-15T11:01:44;3.20;;;2.13;;
10511;SDS011;5304;48.604;2.096;2022-11-15T11:04:30;7.00;;;2.30;;
10511;SDS011;5304;48.604;2.096;2022-11-15T11:07:34;3.33;;;2.10;;
10511;SDS011;5304;48.604;2.096;2022-11-15T11:10:21;4.20;;;2.20;;
10511;SDS011;5304;48.604;2.096;2022-11-15T11:13:19;3.50;;;2.10;;
10511;SDS011;5304;48.604;2.096;2022-11-15T11:34:50;3.87;;;2.57;;
10511;SDS011;5304;48.604;2.096;2022-11-15T11:37:56;3.60;;;2.00;;
10511;SDS011;5304;48.604;2.096;2022-11-15T11:40:48;3.70;;;2.50;;
10511;SDS011;5304;48.604;2.096;2022-11-15T11:43:47;4.03;;;2.80;;
10511;SDS011;5304;48.604;2.096;2022-11-15T11:49:54;4.33;;;2.80;;
10511;SDS011;5304;48.604;2.096;2022-11-15T11:53:03;4.73;;;2.93;;
10511;SDS011;5304;48.604;2.096;2022-11-15T11:55:59;4.23;;;3.03;;
10511;SDS011;5304;48.604;2.096;2022-11-15T11:58:49;3.63;;;2.63;;
10511;SDS011;5304;48.604;2.096;2022-11-15T12:01:41;6.03;;;2.67;;
10511;SDS011;5304;48.604;2.096;2022-11-15T12:04:29;4.07;;;2.97;;
10511;SDS011;5304;48.604;2.096;2022-11-15T12:07:24;3.83;;;2.50;;
10511;SDS011;5304;48.604;2.096;2022-11-15T12:13:13;4.13;;;2.67;;
10511;SDS011;5304;48.604;2.096;2022-11-15T12:16:20;4.53;;;3.03;;
10511;SDS011;5304;48.604;2.096;2022-11-15T12:19:10;4.87;;;2.80;;
10511;SDS011;5304;48.604;2.096;2022-11-15T12:25:01;4.57;;;2.83;;
10511;SDS011;5304;48.604;2.096;2022-11-15T12:27:57;3.30;;;2.83;;
10511;SDS011;5304;48.604;2.096;2022-11-15T12:30:53;4.67;;;2.90;;
10511;SDS011;5304;48.604;2.096;2022-11-15T12:33:47;3.30;;;2.80;;
10511;SDS011;5304;48.604;2.096;2022-11-15T12:36:37;3.50;;;2.83;;
10511;SDS011;5304;48.604;2.096;2022-11-15T12:42:58;4.43;;;2.90;;
10511;SDS011;5304;48.604;2.096;2022-11-15T12:45:43;5.73;;;3.00;;
10511;SDS011;5304;48.604;2.096;2022-11-15T12:51:21;4.93;;;3.10;;
10511;SDS011;5304;48.604;2.096;2022-11-15T13:00:00;5.27;;;3.00;;
10511;SDS011;5304;48.604;2.096;2022-11-15T13:03:16;3.60;;;3.10;;
10511;SDS011;5304;48.604;2.096;2022-11-15T13:06:03;3.90;;;2.60;;
10511;SDS011;5304;48.604;2.096;2022-11-15T13:08:50;4.63;;;2.97;;
10511;SDS011;5304;48.604;2.096;2022-11-15T13:11:41;4.90;;;2.90;;
10511;SDS011;5304;48.604;2.096;2022-11-15T13:17:33;3.80;;;3.00;;
10511;SDS011;5304;48.604;2.096;2022-11-15T13:20:26;6.07;;;3.30;;
10511;SDS011;5304;48.604;2.096;2022-11-15T13:23:15;5.13;;;3.20;;
10511;SDS011;5304;48.604;2.096;2022-11-15T13:28:51;2.97;;;2.67;;
10511;SDS011;5304;48.604;2.096;2022-11-15T13:31:42;5.00;;;3.10;;
10511;SDS011;5304;48.604;2.096;2022-11-15T13:34:30;3.90;;;2.97;;
10511;SDS011;5304;48.604;2.096;2022-11-15T13:40:15;5.20;;;3.27;;
10511;SDS011;5304;48.604;2.096;2022-11-15T13:43:15;5.87;;;3.23;;
10511;SDS011;5304;48.604;2.096;2022-11-15T13:46:22;3.17;;;2.87;;
10511;SDS011;5304;48.604;2.096;2022-11-15T13:49:09;6.97;;;3.23;;
10511;SDS011;5304;48.604;2.096;2022-11-15T13:51:55;6.60;;;3.83;;
10511;SDS011;5304;48.604;2.096;2022-11-15T13:54:43;6.73;;;3.80;;
10511;SDS011;5304;48.604;2.096;2022-11-15T14:00:33;6.13;;;3.53;;
10511;SDS011;5304;48.604;2.096;2022-11-15T14:06:08;5.23;;;3.20;;
10511;SDS011;5304;48.604;2.096;2022-11-15T14:11:54;8.63;;;3.70;;
10511;SDS011;5304;48.604;2.096;2022-11-15T14:14:44;4.90;;;4.00;;
10511;SDS011;5304;48.604;2.096;2022-11-15T14:20:33;6.60;;;4.03;;
10511;SDS011;5304;48.604;2.096;2022-11-15T14:23:24;5.90;;;3.97;;
10511;SDS011;5304;48.604;2.096;2022-11-15T14:26:25;5.33;;;4.00;;
10511;SDS011;5304;48.604;2.096;2022-11-15T14:29:26;5.57;;;3.80;;
10511;SDS011;5304;48.604;2.096;2022-11-15T14:32:13;4.80;;;4.33;;
10511;SDS011;5304;48.604;2.096;2022-11-15T14:35:03;7.67;;;3.73;;
10511;SDS011;5304;48.604;2.096;2022-11-15T14:37:55;7.47;;;4.10;;
10511;SDS011;5304;48.604;2.096;2022-11-15T14:40:40;6.80;;;4.60;;
10511;SDS011;5304;48.604;2.096;2022-11-15T14:43:24;5.97;;;3.83;;
10511;SDS011;5304;48.604;2.096;2022-11-15T14:46:09;6.17;;;3.63;;
10511;SDS011;5304;48.604;2.096;2022-11-15T14:48:53;4.50;;;3.97;;
10511;SDS011;5304;48.604;2.096;2022-11-15T14:51:38;6.40;;;4.83;;
10511;SDS011;5304;48.604;2.096;2022-11-15T14:54:23;5.47;;;4.53;;
10511;SDS011;5304;48.604;2.096;2022-11-15T14:57:08;5.67;;;5.07;;
10511;SDS011;5304;48.604;2.096;2022-11-15T14:59:53;8.93;;;4.50;;
10511;SDS011;5304;48.604;2.096;2022-11-15T15:02:37;5.20;;;4.20;;
10511;SDS011;5304;48.604;2.096;2022-11-15T15:05:27;6.43;;;4.63;;
10511;SDS011;5304;48.604;2.096;2022-11-15T15:08:21;6.47;;;4.70;;
10511;SDS011;5304;48.604;2.096;2022-11-15T15:11:16;7.87;;;4.50;;
10511;SDS011;5304;48.604;2.096;2022-11-15T15:14:14;4.93;;;4.30;;
10511;SDS011;5304;48.604;2.096;2022-11-15T15:16:58;6.43;;;4.00;;
10511;SDS011;5304;48.604;2.096;2022-11-15T15:19:43;4.80;;;4.27;;
10511;SDS011;5304;48.604;2.096;2022-11-15T15:22:28;7.17;;;4.27;;
10511;SDS011;5304;48.604;2.096;2022-11-15T15:25:18;5.83;;;4.47;;
10511;SDS011;5304;48.604;2.096;2022-11-15T15:28:11;6.93;;;4.80;;
10511;SDS011;5304;48.604;2.096;2022-11-15T15:30:55;7.50;;;4.63;;
10511;SDS011;5304;48.604;2.096;2022-11-15T15:33:40;5.60;;;4.07;;
10511;SDS011;5304;48.604;2.096;2022-11-15T15:36:24;6.40;;;4.53;;
10511;SDS011;5304;48.604;2.096;2022-11-15T15:39:09;9.33;;;4.73;;
10511;SDS011;5304;48.604;2.096;2022-11-15T15:41:55;7.23;;;4.53;;
10511;SDS011;5304;48.604;2.096;2022-11-15T15:44:39;6.13;;;3.93;;
10511;SDS011;5304;48.604;2.096;2022-11-15T15:47:24;5.87;;;3.90;;
10511;SDS011;5304;48.604;2.096;2022-11-15T15:53:09;5.37;;;4.10;;
10511;SDS011;5304;48.604;2.096;2022-11-15T15:55:54;6.77;;;3.70;;
10511;SDS011;5304;48.604;2.096;2022-11-15T15:58:39;5.13;;;3.90;;
10511;SDS011;5304;48.604;2.096;2022-11-15T16:01:23;5.40;;;3.73;;
10511;SDS011;5304;48.604;2.096;2022-11-15T16:04:08;6.50;;;3.83;;
10511;SDS011;5304;48.604;2.096;2022-11-15T16:06:53;5.53;;;3.70;;
10511;SDS011;5304;48.604;2.096;2022-11-15T16:09:44;7.93;;;4.10;;
10511;SDS011;5304;48.604;2.096;2022-11-15T16:12:44;5.37;;;3.77;;
10511;SDS011;5304;48.604;2.096;2022-11-15T16:15:30;7.03;;;4.47;;
10511;SDS011;5304;48.604;2.096;2022-11-15T16:18:16;6.33;;;4.17;;
10511;SDS011;5304;48.604;2.096;2022-11-15T16:21:01;5.90;;;4.13;;
10511;SDS011;5304;48.604;2.096;2022-11-15T16:23:46;9.70;;;3.80;;
10511;SDS011;5304;48.604;2.096;2022-11-15T16:26:30;5.53;;;4.00;;
10511;SDS011;5304;48.604;2.096;2022-11-15T16:29:18;7.63;;;3.87;;
10511;SDS011;5304;48.604;2.096;2022-11-15T16:32:02;4.90;;;3.63;;
10511;SDS011;5304;48.604;2.096;2022-11-15T16:34:46;4.83;;;3.70;;
10511;SDS011;5304;48.604;2.096;2022-11-15T16:37:31;6.47;;;3.97;;
10511;SDS011;5304;48.604;2.096;2022-11-15T16:43:14;7.53;;;4.20;;
10511;SDS011;5304;48.604;2.096;2022-11-15T16:46:00;6.27;;;4.00;;
10511;SDS011;5304;48.604;2.096;2022-11-15T16:48:52;4.63;;;4.07;;
10511;SDS011;5304;48.604;2.096;2022-11-15T16:51:37;4.93;;;4.20;;
10511;SDS011;5304;48.604;2.096;2022-11-15T16:54:24;5.70;;;3.80;;
10511;SDS011;5304;48.604;2.096;2022-11-15T16:57:10;5.90;;;4.57;;
10511;SDS011;5304;48.604;2.096;2022-11-15T16:59:54;5.37;;;4.67;;
10511;SDS011;5304;48.604;2.096;2022-11-15T17:02:38;7.70;;;4.33;;
10511;SDS011;5304;48.604;2.096;2022-11-15T17:05:23;5.70;;;3.93;;
10511;SDS011;5304;48.604;2.096;2022-11-15T17:08:10;5.07;;;4.47;;
10511;SDS011;5304;48.604;2.096;2022-11-15T17:10:54;8.63;;;5.13;;
10511;SDS011;5304;48.604;2.096;2022-11-15T17:13:38;6.17;;;4.50;;
10511;SDS011;5304;48.604;2.096;2022-11-15T17:16:23;8.87;;;3.93;;
10511;SDS011;5304;48.604;2.096;2022-11-15T17:19:16;8.83;;;4.57;;
10511;SDS011;5304;48.604;2.096;2022-11-15T17:22:02;6.93;;;4.20;;
10511;SDS011;5304;48.604;2.096;2022-11-15T17:24:47;6.30;;;4.40;;
10511;SDS011;5304;48.604;2.096;2022-11-15T17:27:31;7.50;;;4.47;;
10511;SDS011;5304;48.604;2.096;2022-11-15T17:30:16;7.27;;;5.20;;
10511;SDS011;5304;48.604;2.096;2022-11-15T17:33:02;7.17;;;4.70;;
10511;SDS011;5304;48.604;2.096;2022-11-15T17:35:54;9.30;;;5.10;;
10511;SDS011;5304;48.604;2.096;2022-11-15T17:38:43;6.70;;;4.50;;
10511;SDS011;5304;48.604;2.096;2022-11-15T17:41:33;6.50;;;4.30;;
10511;SDS011;5304;48.604;2.096;2022-11-15T17:44:17;9.90;;;5.73;;
10511;SDS011;5304;48.604;2.096;2022-11-15T17:47:02;8.03;;;4.57;;
10511;SDS011;5304;48.604;2.096;2022-11-15T17:49:46;10.90;;;7.40;;
10511;SDS011;5304;48.604;2.096;2022-11-15T17:52:30;10.07;;;5.93;;
10511;SDS011;5304;48.604;2.096;2022-11-15T17:55:15;8.20;;;4.73;;
10511;SDS011;5304;48.604;2.096;2022-11-15T17:57:59;11.60;;;5.33;;
10511;SDS011;5304;48.604;2.096;2022-11-15T18:00:47;6.23;;;3.73;;
10511;SDS011;5304;48.604;2.096;2022-11-15T18:03:35;6.40;;;4.70;;
10511;SDS011;5304;48.604;2.096;2022-11-15T18:06:20;5.20;;;3.90;;
10511;SDS011;5304;48.604;2.096;2022-11-15T18:09:07;7.40;;;3.63;;
10511;SDS011;5304;48.604;2.096;2022-11-15T18:11:52;5.67;;;4.17;;
10511;SDS011;5304;48.604;2.096;2022-11-15T18:14:37;6.97;;;5.00;;
10511;SDS011;5304;48.604;2.096;2022-11-15T18:17:22;5.27;;;3.20;;
10511;SDS011;5304;48.604;2.096;2022-11-15T18:20:06;5.77;;;3.40;;
10511;SDS011;5304;48.604;2.096;2022-11-15T18:22:52;4.80;;;3.80;;
10511;SDS011;5304;48.604;2.096;2022-11-15T18:25:37;4.97;;;3.57;;
10511;SDS011;5304;48.604;2.096;2022-11-15T18:28:21;4.07;;;2.93;;
10511;SDS011;5304;48.604;2.096;2022-11-15T18:31:15;5.33;;;2.93;;
10511;SDS011;5304;48.604;2.096;2022-11-15T18:34:05;6.17;;;3.70;;
10511;SDS011;5304;48.604;2.096;2022-11-15T18:36:50;4.80;;;3.07;;
10511;SDS011;5304;48.604;2.096;2022-11-15T18:39:35;3.97;;;3.57;;
10511;SDS011;5304;48.604;2.096;2022-11-15T18:42:20;5.63;;;3.97;;
10511;SDS011;5304;48.604;2.096;2022-11-15T18:45:04;9.13;;;5.70;;
10511;SDS011;5304;48.604;2.096;2022-11-15T18:47:49;5.37;;;3.60;;
10511;SDS011;5304;48.604;2.096;2022-11-15T18:50:33;6.97;;;4.83;;
10511;SDS011;5304;48.604;2.096;2022-11-15T18:53:18;7.13;;;3.70;;
10511;SDS011;5304;48.604;2.096;2022-11-15T18:56:03;5.23;;;2.80;;
10511;SDS011;5304;48.604;2.096;2022-11-15T18:58:55;5.20;;;3.20;;
10511;SDS011;5304;48.604;2.096;2022-11-15T19:01:42;6.27;;;3.30;;
10511;SDS011;5304;48.604;2.096;2022-11-15T19:04:30;6.47;;;3.23;;
10511;SDS011;5304;48.604;2.096;2022-11-15T19:07:14;5.03;;;3.00;;
10511;SDS011;5304;48.604;2.096;2022-11-15T19:09:59;5.07;;;2.93;;
10511;SDS011;5304;48.604;2.096;2022-11-15T19:12:43;4.33;;;3.50;;